createdAt,value
2018-10-19T00:01:01.231Z,12.20
2018-10-19T00:03:29.487Z,12.30
2018-10-19T00:05:57.783Z,12.20
2018-10-19T00:08:26.097Z,12.30
2018-10-19T00:10:54.454Z,12.30
2018-10-19T00:13:22.685Z,12.40
2018-10-19T00:15:51.053Z,12.40
2018-10-19T00:18:19.344Z,12.40
2018-10-19T00:20:47.641Z,12.40
2018-10-19T00:23:15.974Z,12.40
2018-10-19T00:25:44.209Z,12.30
2018-10-19T00:28:12.489Z,12.30
2018-10-19T00:30:40.810Z,12.30
2018-10-19T00:33:09.196Z,12.30
2018-10-19T00:35:37.402Z,12.30
2018-10-19T00:38:05.746Z,12.30
2018-10-19T00:40:34.014Z,12.30
2018-10-19T00:43:02.290Z,12.20
2018-10-19T00:45:36.097Z,12.20
2018-10-19T00:48:18.505Z,12.20
2018-10-19T00:50:46.805Z,12.20
2018-10-19T00:53:15.491Z,12.20
2018-10-19T00:55:43.753Z,12.20
2018-10-19T00:58:12.046Z,12.10
2018-10-19T01:00:42.117Z,12.10
2018-10-19T01:03:10.643Z,12.10
2018-10-19T01:05:40.010Z,12.10
2018-10-19T01:08:09.109Z,12.10
2018-10-19T01:10:37.485Z,12.10
2018-10-19T01:13:05.959Z,12.10
2018-10-19T01:15:34.257Z,12.10
2018-10-19T01:18:02.581Z,12.10
2018-10-19T01:20:30.905Z,12.10
2018-10-19T01:22:59.246Z,12.00
2018-10-19T01:25:27.637Z,11.80
2018-10-19T01:27:55.909Z,11.90
2018-10-19T01:30:24.197Z,11.90
2018-10-19T01:32:52.495Z,11.90
2018-10-19T01:35:20.769Z,11.80
2018-10-19T01:37:49.061Z,11.80
2018-10-19T01:40:17.321Z,11.70
2018-10-19T01:42:45.601Z,11.70
2018-10-19T01:45:13.948Z,11.70
2018-10-19T01:47:42.717Z,11.60
2018-10-19T01:50:11.727Z,11.60
2018-10-19T01:52:40.805Z,11.60
2018-10-19T01:55:09.217Z,11.60
2018-10-19T01:57:37.789Z,11.70
2018-10-19T02:00:06.478Z,11.70
2018-10-19T02:02:34.765Z,11.70
2018-10-19T02:05:03.142Z,11.80
2018-10-19T02:07:31.425Z,11.70
2018-10-19T02:09:59.689Z,11.60
2018-10-19T02:12:27.994Z,11.70
2018-10-19T02:14:56.346Z,11.60
2018-10-19T02:17:24.649Z,11.60
2018-10-19T02:19:53.034Z,11.60
2018-10-19T02:22:21.335Z,11.70
2018-10-19T02:24:49.588Z,11.70
2018-10-19T02:27:17.890Z,11.70
2018-10-19T02:29:46.192Z,11.60
2018-10-19T02:32:14.464Z,11.50
2018-10-19T02:34:42.842Z,11.50
2018-10-19T02:37:11.116Z,11.50
2018-10-19T02:39:39.394Z,11.40
2018-10-19T02:42:07.652Z,11.40
2018-10-19T02:44:35.984Z,11.30
2018-10-19T02:47:04.530Z,11.30
2018-10-19T02:49:32.802Z,11.40
2018-10-19T02:52:01.060Z,11.40
2018-10-19T02:54:29.559Z,11.30
2018-10-19T02:56:57.822Z,11.30
2018-10-19T02:59:26.417Z,11.30
2018-10-19T03:01:54.718Z,11.30
2018-10-19T03:04:23.157Z,11.20
2018-10-19T03:06:51.480Z,11.30
2018-10-19T03:09:19.735Z,11.20
2018-10-19T03:11:48.613Z,11.20
2018-10-19T03:14:17.205Z,11.10
2018-10-19T03:16:45.984Z,11.10
2018-10-19T03:19:14.279Z,11.10
2018-10-19T03:21:42.717Z,11.10
2018-10-19T03:24:10.979Z,11.00
2018-10-19T03:26:39.362Z,10.80
2018-10-19T03:29:07.724Z,10.70
2018-10-19T03:31:37.278Z,10.70
2018-10-19T03:34:06.167Z,10.60
2018-10-19T03:36:34.468Z,10.60
2018-10-19T03:39:04.690Z,10.50
2018-10-19T03:41:32.936Z,10.60
2018-10-19T03:44:01.210Z,10.50
2018-10-19T03:46:29.500Z,10.50
2018-10-19T03:48:57.857Z,10.50
2018-10-19T03:51:26.102Z,10.50
2018-10-19T03:53:54.391Z,10.40
2018-10-19T03:56:22.695Z,10.50
2018-10-19T03:58:50.956Z,10.40
2018-10-19T04:01:19.208Z,10.40
2018-10-19T04:03:47.527Z,10.40
2018-10-19T04:06:15.833Z,10.40
2018-10-19T04:08:44.106Z,10.40
2018-10-19T04:11:12.523Z,10.30
2018-10-19T04:13:40.722Z,10.30
2018-10-19T04:16:09.040Z,10.20
2018-10-19T04:18:37.361Z,10.20
2018-10-19T04:21:06.440Z,10.30
2018-10-19T04:23:34.695Z,10.20
2018-10-19T04:26:03.121Z,10.20
2018-10-19T04:28:31.411Z,10.20
2018-10-19T04:30:59.712Z,10.10
2018-10-19T04:33:28.189Z,10.10
2018-10-19T04:35:56.563Z,10.10
2018-10-19T04:38:24.881Z,10.00
2018-10-19T04:40:53.205Z,9.90
2018-10-19T04:43:21.459Z,10.00
2018-10-19T04:45:49.739Z,9.90
2018-10-19T04:48:18.037Z,9.90
2018-10-19T04:50:46.336Z,9.80
2018-10-19T04:53:14.679Z,9.80
2018-10-19T04:55:43.101Z,9.80
2018-10-19T04:58:12.197Z,9.80
2018-10-19T05:00:40.481Z,9.70
2018-10-19T05:03:08.802Z,9.70
2018-10-19T05:05:37.029Z,9.60
2018-10-19T05:08:05.716Z,9.60
2018-10-19T05:10:34.292Z,9.50
2018-10-19T05:13:02.707Z,9.50
2018-10-19T05:15:30.921Z,9.40
2018-10-19T05:17:59.207Z,9.30
2018-10-19T05:20:27.502Z,9.30
2018-10-19T05:22:56.080Z,9.30
2018-10-19T05:25:24.456Z,9.30
2018-10-19T05:27:52.771Z,9.30
2018-10-19T05:30:21.101Z,9.30
2018-10-19T05:32:49.515Z,9.30
2018-10-19T05:35:17.981Z,9.20
2018-10-19T05:37:46.154Z,9.20
2018-10-19T05:40:14.457Z,9.20
2018-10-19T05:42:43.050Z,9.20
2018-10-19T05:45:14.962Z,9.10
2018-10-19T05:47:43.291Z,9.20
2018-10-19T05:50:12.459Z,9.10
2018-10-19T05:52:40.785Z,9.10
2018-10-19T05:55:10.156Z,9.10
2018-10-19T05:57:39.605Z,9.10
2018-10-19T06:00:09.041Z,9.10
2018-10-19T06:02:37.364Z,9.10
2018-10-19T06:05:06.576Z,9.20
2018-10-19T06:07:35.929Z,9.20
2018-10-19T06:10:04.637Z,9.20
2018-10-19T06:12:33.170Z,9.20
2018-10-19T06:15:01.870Z,9.30
2018-10-19T06:17:30.166Z,9.20
2018-10-19T06:19:58.491Z,9.20
2018-10-19T06:22:26.758Z,9.30
2018-10-19T06:24:55.165Z,9.30
2018-10-19T06:27:23.464Z,9.30
2018-10-19T06:29:51.749Z,9.30
2018-10-19T06:32:20.048Z,9.40
2018-10-19T06:34:48.343Z,9.40
2018-10-19T06:37:17.349Z,9.40
2018-10-19T06:39:45.628Z,9.40
2018-10-19T06:42:14.352Z,9.50
2018-10-19T06:44:42.965Z,9.60
2018-10-19T06:47:11.971Z,9.70
2018-10-19T06:49:40.216Z,9.80
2018-10-19T06:52:08.558Z,9.90
2018-10-19T06:54:37.163Z,9.80
2018-10-19T06:57:05.544Z,9.80
2018-10-19T06:59:33.959Z,9.80
2018-10-19T07:02:02.219Z,9.70
2018-10-19T07:04:30.496Z,9.60
2018-10-19T07:06:58.817Z,9.50
2018-10-19T07:09:27.098Z,9.40
2018-10-19T07:11:55.404Z,9.30
2018-10-19T07:14:23.656Z,9.40
2018-10-19T07:16:51.943Z,9.50
2018-10-19T07:19:20.265Z,9.60
2018-10-19T07:21:48.562Z,9.70
2018-10-19T07:24:16.849Z,9.80
2018-10-19T07:26:45.151Z,9.90
2018-10-19T07:29:15.433Z,10.00
2018-10-19T07:31:46.944Z,10.10
2018-10-19T07:34:16.125Z,10.10
2018-10-19T07:36:44.611Z,10.10
2018-10-19T07:39:14.671Z,10.10
2018-10-19T07:41:43.680Z,10.30
2018-10-19T07:44:12.843Z,10.30
2018-10-19T07:46:41.067Z,10.30
2018-10-19T07:49:09.716Z,10.50
2018-10-19T07:51:38.644Z,10.50
2018-10-19T07:54:11.429Z,10.70
2018-10-19T07:56:41.513Z,10.90
2018-10-19T07:59:09.810Z,11.00
2018-10-19T08:01:41.184Z,11.20
2018-10-19T08:04:10.423Z,11.30
2018-10-19T08:06:40.192Z,11.40
2018-10-19T08:09:11.641Z,11.70
2018-10-19T08:11:40.431Z,11.80
2018-10-19T08:14:08.755Z,12.10
2018-10-19T08:16:43.330Z,12.60
2018-10-19T08:19:11.638Z,13.60
2018-10-19T08:21:40.278Z,14.90
2018-10-19T08:24:08.573Z,15.90
2018-10-19T08:26:37.028Z,16.30
2018-10-19T08:29:05.744Z,17.00
2018-10-19T08:31:34.002Z,17.40
2018-10-19T08:34:02.450Z,17.40
2018-10-19T08:36:30.756Z,17.30
2018-10-19T08:38:59.030Z,17.60
2018-10-19T08:41:27.355Z,18.00
2018-10-19T08:43:55.577Z,17.90
2018-10-19T08:46:29.164Z,18.30
2018-10-19T08:48:57.940Z,18.50
2018-10-19T08:51:26.176Z,19.10
2018-10-19T08:53:54.597Z,18.90
2018-10-19T08:56:22.832Z,19.30
2018-10-19T08:58:51.170Z,19.60
2018-10-19T09:01:19.446Z,20.00
2018-10-19T09:03:47.811Z,20.40
2018-10-19T09:06:16.553Z,20.80
2018-10-19T09:08:44.887Z,20.80
2018-10-19T09:11:13.743Z,21.40
2018-10-19T09:13:42.049Z,21.60
2018-10-19T09:16:10.641Z,21.80
2018-10-19T09:18:39.173Z,22.20
2018-10-19T09:21:07.444Z,22.30
2018-10-19T09:23:35.745Z,22.70
2018-10-19T09:26:04.148Z,23.10
2018-10-19T09:28:33.345Z,23.30
2018-10-19T09:31:01.672Z,23.30
2018-10-19T09:33:31.185Z,23.50
2018-10-19T09:35:59.771Z,23.70
2018-10-19T09:38:28.015Z,23.70
2018-10-19T09:40:56.557Z,23.70
2018-10-19T09:43:24.812Z,23.70
2018-10-19T09:45:53.355Z,23.30
2018-10-19T09:48:21.783Z,23.50
2018-10-19T09:50:50.139Z,23.50
2018-10-19T09:53:18.434Z,23.30
2018-10-19T09:55:46.937Z,23.30
2018-10-19T09:58:15.246Z,23.10
2018-10-19T10:00:48.995Z,23.00
2018-10-19T10:03:17.486Z,22.70
2018-10-19T10:05:45.576Z,22.20
2018-10-19T10:08:13.877Z,22.60
2018-10-19T10:10:42.149Z,22.60
2018-10-19T10:13:10.498Z,22.80
2018-10-19T10:15:38.967Z,22.90
2018-10-19T10:18:07.217Z,22.90
2018-10-19T10:20:35.594Z,22.60
2018-10-19T10:23:03.914Z,22.70
2018-10-19T10:25:32.225Z,22.50
2018-10-19T10:28:00.590Z,22.60
2018-10-19T10:30:28.876Z,22.50
2018-10-19T10:32:57.147Z,22.20
2018-10-19T10:35:25.448Z,22.10
2018-10-19T10:37:53.735Z,21.40
2018-10-19T10:40:22.063Z,20.90
2018-10-19T10:42:50.367Z,20.80
2018-10-19T10:45:18.653Z,20.80
2018-10-19T10:47:47.016Z,20.70
2018-10-19T10:50:15.623Z,20.50
2018-10-19T10:52:44.038Z,20.60
2018-10-19T10:55:13.684Z,20.70
2018-10-19T10:57:42.027Z,20.90
2018-10-19T11:00:10.411Z,21.30
2018-10-19T11:02:38.684Z,21.60
2018-10-19T11:05:07.344Z,21.70
2018-10-19T11:07:36.553Z,21.70
2018-10-19T11:10:05.371Z,21.90
2018-10-19T11:12:34.117Z,21.90
2018-10-19T11:15:03.261Z,21.90
2018-10-19T11:17:31.726Z,21.90
2018-10-19T11:20:00.165Z,21.90
2018-10-19T11:22:29.482Z,21.90
2018-10-19T11:24:58.750Z,21.90
2018-10-19T11:27:28.449Z,21.60
2018-10-19T11:29:57.791Z,21.80
2018-10-19T11:32:28.888Z,21.60
2018-10-19T11:34:57.964Z,21.60
2018-10-19T11:37:27.164Z,21.80
2018-10-19T11:40:07.056Z,21.40
2018-10-19T11:42:35.577Z,21.30
2018-10-19T11:45:03.933Z,21.40
2018-10-19T11:47:33.237Z,21.30
2018-10-19T11:50:03.131Z,21.10
2018-10-19T11:52:31.953Z,20.90
2018-10-19T11:55:03.538Z,20.60
2018-10-19T11:57:39.351Z,20.50
2018-10-19T12:00:09.484Z,20.20
2018-10-19T12:02:38.192Z,20.10
2018-10-19T12:05:10.452Z,20.10
2018-10-19T12:07:41.191Z,20.10
2018-10-19T12:10:11.366Z,20.10
2018-10-19T12:12:42.327Z,20.00
2018-10-19T12:15:13.618Z,20.10
2018-10-19T12:17:44.388Z,20.10
2018-10-19T12:20:17.499Z,20.20
2018-10-19T12:22:45.931Z,20.20
2018-10-19T12:25:15.568Z,19.90
2018-10-19T12:27:45.117Z,19.90
2018-10-19T12:30:14.040Z,19.60
2018-10-19T12:32:42.758Z,19.80
2018-10-19T12:35:13.238Z,19.90
2018-10-19T12:37:42.257Z,19.80
2018-10-19T12:40:11.551Z,19.90
2018-10-19T12:42:40.250Z,19.60
2018-10-19T12:45:20.716Z,19.40
2018-10-19T12:47:49.168Z,18.90
2018-10-19T12:50:18.047Z,18.90
2018-10-19T12:52:48.829Z,18.80
2018-10-19T12:55:18.625Z,18.70
2018-10-19T12:57:47.215Z,18.60
2018-10-19T13:00:16.603Z,18.50
2018-10-19T13:02:46.947Z,18.40
2018-10-19T13:05:15.349Z,18.20
2018-10-19T13:07:43.701Z,18.10
2018-10-19T13:10:13.071Z,18.10
2018-10-19T13:12:42.445Z,18.20
2018-10-19T13:15:10.814Z,18.00
2018-10-19T13:17:40.205Z,18.00
2018-10-19T13:20:08.833Z,18.00
2018-10-19T13:22:37.212Z,17.90
2018-10-19T13:25:05.610Z,17.90
2018-10-19T13:27:36.531Z,17.70
2018-10-19T13:30:08.079Z,17.70
2018-10-19T13:32:36.375Z,17.50
2018-10-19T13:35:04.838Z,17.50
2018-10-19T13:37:33.216Z,17.50
2018-10-19T13:40:01.800Z,17.50
2018-10-19T13:42:30.062Z,17.50
2018-10-19T13:44:59.463Z,17.40
2018-10-19T13:47:27.665Z,17.30
2018-10-19T13:49:56.315Z,17.30
2018-10-19T13:52:32.242Z,17.30
2018-10-19T13:55:01.339Z,17.50
2018-10-19T13:57:30.517Z,17.60
2018-10-19T13:59:59.350Z,17.60
2018-10-19T14:02:31.725Z,17.50
2018-10-19T14:05:00.155Z,17.40
2018-10-19T14:07:28.430Z,17.50
2018-10-19T14:09:56.727Z,17.50
2018-10-19T14:12:26.312Z,17.50
2018-10-19T14:14:55.214Z,17.60
2018-10-19T14:20:22.878Z,17.50
2018-10-19T14:22:51.833Z,17.30
2018-10-19T14:25:21.120Z,17.40
2018-10-19T14:27:49.393Z,17.40
2018-10-19T14:30:18.386Z,17.30
2018-10-19T14:32:46.712Z,17.50
2018-10-19T14:35:15.561Z,17.50
2018-10-19T14:37:45.090Z,17.50
2018-10-19T14:40:14.989Z,17.40
2018-10-19T14:42:43.741Z,17.40
2018-10-19T14:45:13.416Z,17.30
2018-10-19T14:47:42.546Z,17.30
2018-10-19T14:50:12.780Z,17.20
2018-10-19T14:52:41.070Z,17.30
2018-10-19T14:55:11.607Z,17.30
2018-10-19T14:57:40.184Z,17.50
2018-10-19T15:00:11.989Z,17.50
2018-10-19T15:02:40.391Z,17.50
2018-10-19T15:05:10.378Z,17.40
2018-10-19T15:07:38.968Z,17.40
2018-10-19T15:10:12.376Z,17.30
2018-10-19T15:12:43.275Z,17.30
2018-10-19T15:15:14.268Z,17.20
2018-10-19T15:17:42.770Z,17.10
2018-10-19T15:20:11.715Z,17.10
2018-10-19T15:22:40.131Z,17.00
2018-10-19T15:25:09.295Z,16.90
2018-10-19T15:27:38.647Z,16.90
2018-10-19T15:30:08.198Z,16.80
2018-10-19T15:32:36.510Z,16.80
2018-10-19T15:35:05.243Z,16.70
2018-10-19T15:37:34.069Z,16.70
2018-10-19T15:40:02.400Z,16.70
2018-10-19T15:42:30.668Z,16.60
2018-10-19T15:44:59.068Z,16.60
2018-10-19T15:47:29.020Z,16.60
2018-10-19T15:49:58.238Z,16.60
2018-10-19T15:52:27.458Z,16.50
2018-10-19T15:54:55.816Z,16.40
2018-10-19T15:57:25.131Z,16.40
2018-10-19T15:59:53.355Z,16.30
2018-10-19T16:02:21.632Z,16.30
2018-10-19T16:04:50.340Z,16.30
2018-10-19T16:07:18.904Z,16.30
2018-10-19T16:09:49.118Z,16.30
2018-10-19T16:12:18.277Z,16.30
2018-10-19T16:14:47.227Z,16.30
2018-10-19T16:17:15.522Z,16.30
2018-10-19T16:19:43.850Z,16.30
2018-10-19T16:22:13.281Z,16.30
2018-10-19T16:24:41.543Z,16.30
2018-10-19T16:27:09.852Z,16.30
2018-10-19T16:29:39.557Z,16.80
2018-10-19T16:32:07.964Z,16.90
2018-10-19T16:34:36.245Z,16.80
2018-10-19T16:37:05.279Z,16.70
2018-10-19T16:39:33.748Z,16.60
2018-10-19T16:42:02.147Z,16.40
2018-10-19T16:44:30.877Z,16.30
2018-10-19T16:46:59.285Z,16.20
2018-10-19T16:49:27.661Z,16.20
2018-10-19T16:51:56.616Z,16.20
2018-10-19T16:54:24.793Z,16.10
2018-10-19T16:56:53.278Z,16.10
2018-10-19T16:59:21.540Z,16.00
2018-10-19T17:01:49.934Z,16.00
2018-10-19T17:04:18.368Z,16.00
2018-10-19T17:06:46.657Z,16.00
2018-10-19T17:09:15.116Z,15.90
2018-10-19T17:11:43.823Z,15.90
2018-10-19T17:14:12.395Z,15.90
2018-10-19T17:16:40.895Z,15.90
2018-10-19T17:19:09.761Z,15.90
2018-10-19T17:21:38.158Z,15.80
2018-10-19T17:24:06.474Z,15.80
2018-10-19T17:26:34.995Z,15.80
2018-10-19T17:29:03.365Z,15.80
2018-10-19T17:31:31.719Z,15.70
2018-10-19T17:33:59.987Z,15.70
2018-10-19T17:36:28.396Z,15.60
2018-10-19T17:38:57.231Z,15.60
2018-10-19T17:41:25.524Z,15.60
2018-10-19T17:43:54.026Z,15.70
2018-10-19T17:46:22.778Z,15.60
2018-10-19T17:48:51.438Z,15.60
2018-10-19T17:51:19.846Z,15.50
2018-10-19T17:53:48.551Z,15.50
2018-10-19T17:56:16.836Z,15.50
2018-10-19T17:58:45.368Z,15.50
2018-10-19T18:01:13.646Z,15.40
2018-10-19T18:03:41.959Z,15.40
2018-10-19T18:06:10.273Z,15.40
2018-10-19T18:08:38.576Z,15.40
2018-10-19T18:11:06.966Z,15.40
2018-10-19T18:13:35.688Z,15.40
2018-10-19T18:16:04.193Z,15.40
2018-10-19T18:18:32.628Z,15.40
2018-10-19T18:21:01.563Z,15.40
2018-10-19T18:23:29.833Z,15.40
2018-10-19T18:25:58.892Z,15.40
2018-10-19T18:28:28.087Z,15.40
2018-10-19T18:30:56.367Z,15.30
2018-10-19T18:33:25.288Z,15.30
2018-10-19T18:35:54.511Z,15.30
2018-10-19T18:38:23.403Z,15.20
2018-10-19T18:40:53.518Z,15.20
2018-10-19T18:43:22.218Z,15.20
2018-10-19T18:45:50.704Z,15.20
2018-10-19T18:48:20.272Z,15.10
2018-10-19T18:50:48.835Z,15.10
2018-10-19T18:53:17.679Z,15.10
2018-10-19T18:55:46.144Z,15.10
2018-10-19T18:58:14.429Z,15.00
2018-10-19T19:00:43.017Z,15.00
2018-10-19T19:03:12.055Z,15.00
2018-10-19T19:05:40.494Z,15.00
2018-10-19T19:08:08.808Z,15.10
2018-10-19T19:10:37.138Z,15.00
2018-10-19T19:13:10.964Z,15.00
2018-10-19T19:15:39.301Z,15.00
2018-10-19T19:18:07.614Z,15.00
2018-10-19T19:20:36.703Z,15.00
2018-10-19T19:23:05.825Z,15.00
2018-10-19T19:26:11.246Z,15.00
2018-10-19T19:28:39.576Z,15.00
2018-10-19T19:31:07.891Z,15.20
2018-10-19T19:33:41.554Z,15.20
2018-10-19T19:36:10.412Z,15.20
2018-10-19T19:38:39.176Z,15.10
2018-10-19T19:41:16.319Z,15.00
2018-10-19T19:43:46.069Z,15.10
2018-10-19T19:46:15.053Z,15.00
2018-10-19T19:48:49.217Z,15.00
2018-10-19T19:51:17.447Z,15.00
2018-10-19T19:53:45.821Z,15.00
2018-10-19T19:56:14.176Z,15.00
2018-10-19T19:58:43.495Z,14.90
2018-10-19T20:01:11.825Z,14.90
2018-10-19T20:03:40.192Z,14.90
2018-10-19T20:06:08.793Z,14.80
2018-10-19T20:08:37.337Z,14.80
2018-10-19T20:11:06.415Z,14.80
2018-10-19T20:13:34.850Z,14.80
2018-10-19T20:16:03.217Z,14.70
2018-10-19T20:18:31.757Z,14.70
2018-10-19T20:21:00.327Z,14.70
2018-10-19T20:23:28.659Z,14.70
2018-10-19T20:25:58.237Z,14.60
2018-10-19T20:28:26.667Z,14.60
2018-10-19T20:30:55.057Z,14.60
2018-10-19T20:33:23.385Z,14.50
2018-10-19T20:35:51.614Z,14.50
2018-10-19T20:38:20.981Z,14.40
2018-10-19T20:40:49.319Z,14.40
2018-10-19T20:43:17.545Z,14.30
2018-10-19T20:45:46.017Z,14.30
2018-10-19T20:48:14.567Z,14.30
2018-10-19T20:50:42.843Z,14.30
2018-10-19T20:53:14.913Z,14.30
2018-10-19T20:55:43.114Z,14.30
2018-10-19T20:58:11.396Z,14.30
2018-10-19T21:00:39.802Z,14.30
2018-10-19T21:03:08.070Z,14.30
2018-10-19T21:05:36.414Z,14.30
2018-10-19T21:08:05.194Z,14.30
2018-10-19T21:10:33.450Z,14.30
2018-10-19T21:13:01.728Z,14.30
2018-10-19T21:15:30.194Z,14.30
2018-10-19T21:17:58.575Z,14.30
2018-10-19T21:20:27.298Z,14.30
2018-10-19T21:22:55.782Z,14.30
2018-10-19T21:25:24.044Z,14.30
2018-10-19T21:27:52.382Z,14.40
2018-10-19T21:30:20.774Z,14.30
2018-10-19T21:32:49.037Z,14.40
2018-10-19T21:35:17.315Z,14.40
2018-10-19T21:37:45.586Z,14.40
2018-10-19T21:40:13.858Z,14.30
2018-10-19T21:42:42.310Z,14.40
2018-10-19T21:45:10.585Z,14.30
2018-10-19T21:47:38.888Z,14.20
2018-10-19T21:50:07.951Z,14.10
2018-10-19T21:52:36.152Z,14.10
2018-10-19T21:55:04.676Z,14.00
2018-10-19T21:57:32.935Z,14.00
2018-10-19T22:00:01.248Z,14.00
2018-10-19T22:02:29.649Z,13.90
2018-10-19T22:04:58.003Z,13.90
2018-10-19T22:07:26.228Z,13.90
2018-10-19T22:09:54.512Z,13.80
2018-10-19T22:12:22.770Z,13.80
2018-10-19T22:14:51.037Z,13.80
2018-10-19T22:17:19.329Z,13.80
2018-10-19T22:19:47.591Z,13.80
2018-10-19T22:22:15.985Z,13.80
2018-10-19T22:24:44.413Z,13.70
2018-10-19T22:27:12.705Z,13.70
2018-10-19T22:29:41.001Z,13.70
2018-10-19T22:32:09.281Z,13.60
2018-10-19T22:34:37.547Z,13.70
2018-10-19T22:37:06.022Z,13.70
2018-10-19T22:39:34.289Z,13.70
2018-10-19T22:42:02.564Z,13.70
2018-10-19T22:44:30.964Z,13.70
2018-10-19T22:46:59.396Z,13.70
2018-10-19T22:49:27.932Z,13.70
2018-10-19T22:51:56.274Z,13.70
2018-10-19T22:54:24.728Z,13.70
2018-10-19T22:56:53.015Z,13.70
2018-10-19T22:59:21.298Z,13.70
2018-10-19T23:01:49.593Z,13.80
2018-10-19T23:04:18.693Z,13.80
2018-10-19T23:06:47.229Z,13.80
2018-10-19T23:09:16.249Z,13.80
2018-10-19T23:11:44.535Z,13.80
2018-10-19T23:14:12.996Z,13.70
2018-10-19T23:16:41.498Z,13.80
2018-10-19T23:19:09.816Z,13.60
2018-10-19T23:21:38.294Z,13.60
2018-10-19T23:24:07.511Z,13.60
2018-10-19T23:26:35.948Z,13.50
2018-10-19T23:29:07.391Z,13.50
2018-10-19T23:31:36.148Z,13.50
2018-10-19T23:34:04.213Z,13.40
2018-10-19T23:36:32.501Z,13.40
2018-10-19T23:39:00.889Z,13.30
2018-10-19T23:41:29.450Z,13.20
2018-10-19T23:43:58.268Z,13.20
2018-10-19T23:46:27.379Z,13.20
2018-10-19T23:49:04.738Z,13.10
2018-10-19T23:51:33.039Z,13.00
2018-10-19T23:54:01.314Z,13.00
2018-10-19T23:56:29.810Z,13.00
2018-10-19T23:58:58.100Z,13.00
